sensor_id;sensor_type;location;lat;lon;timestamp;pressure;altitude;pressure_sealevel;temperature;humidity
35649;BME280;21768;48.562;13.414;2023-02-12T00:02:05;99137.84;;;5.04;60.24
35649;BME280;21768;48.562;13.414;2023-02-12T00:04:30;99140.53;;;5.06;60.07
35649;BME280;21768;48.562;13.414;2023-02-12T00:06:56;99138.22;;;5.07;60.05
35649;BME280;21768;48.562;13.414;2023-02-12T00:09:21;99133.38;;;5.02;60.08
35649;BME280;21768;48.562;13.414;2023-02-12T00:11:46;99137.50;;;5.01;60.33
35649;BME280;21768;48.562;13.414;2023-02-12T00:14:12;99140.00;;;5.01;59.98
35649;BME280;21768;48.562;13.414;2023-02-12T00:16:37;99131.78;;;5.02;60.02
35649;BME280;21768;48.562;13.414;2023-02-12T00:19:02;99137.13;;;5.05;59.90
35649;BME280;21768;48.562;13.414;2023-02-12T00:21:28;99128.22;;;5.00;60.15
35649;BME280;21768;48.562;13.414;2023-02-12T00:23:54;99135.34;;;4.97;60.30
35649;BME280;21768;48.562;13.414;2023-02-12T00:26:20;99131.78;;;5.02;60.27
35649;BME280;21768;48.562;13.414;2023-02-12T00:28:46;99135.91;;;5.02;60.29
35649;BME280;21768;48.562;13.414;2023-02-12T00:31:16;99132.50;;;5.01;60.23
35649;BME280;21768;48.562;13.414;2023-02-12T00:33:42;99138.91;;;5.06;60.46
35649;BME280;21768;48.562;13.414;2023-02-12T00:36:08;99147.69;;;5.03;60.64
35649;BME280;21768;48.562;13.414;2023-02-12T00:38:34;99137.88;;;4.97;60.75
35649;BME280;21768;48.562;13.414;2023-02-12T00:40:59;99145.00;;;5.01;60.66
35649;BME280;21768;48.562;13.414;2023-02-12T00:43:25;99153.75;;;5.05;60.80
35649;BME280;21768;48.562;13.414;2023-02-12T00:45:51;99153.22;;;5.07;60.80
35649;BME280;21768;48.562;13.414;2023-02-12T00:48:16;99157.84;;;5.11;60.86
35649;BME280;21768;48.562;13.414;2023-02-12T00:50:46;99157.50;;;5.08;61.05
35649;BME280;21768;48.562;13.414;2023-02-12T00:53:12;99156.78;;;5.09;60.78
35649;BME280;21768;48.562;13.414;2023-02-12T00:55:38;99159.09;;;5.08;60.93
35649;BME280;21768;48.562;13.414;2023-02-12T00:58:03;99166.78;;;5.09;60.98
35649;BME280;21768;48.562;13.414;2023-02-12T01:00:29;99158.22;;;5.15;60.97
35649;BME280;21768;48.562;13.414;2023-02-12T01:02:54;99168.56;;;5.18;60.93
35649;BME280;21768;48.562;13.414;2023-02-12T01:05:20;99164.78;;;5.21;60.83
35649;BME280;21768;48.562;13.414;2023-02-12T01:07:52;99161.38;;;5.21;60.85
35649;BME280;21768;48.562;13.414;2023-02-12T01:10:19;99160.66;;;5.22;60.63
35649;BME280;21768;48.562;13.414;2023-02-12T01:12:45;99171.78;;;5.17;60.78
35649;BME280;21768;48.562;13.414;2023-02-12T01:15:12;99170.88;;;5.16;60.95
35649;BME280;21768;48.562;13.414;2023-02-12T01:17:38;99171.38;;;5.21;60.84
35649;BME280;21768;48.562;13.414;2023-02-12T01:20:05;99167.63;;;5.24;60.71
35649;BME280;21768;48.562;13.414;2023-02-12T01:22:33;99170.31;;;5.26;60.87
35649;BME280;21768;48.562;13.414;2023-02-12T01:24:59;99173.16;;;5.29;60.89
35649;BME280;21768;48.562;13.414;2023-02-12T01:27:24;99171.38;;;5.28;60.85
35649;BME280;21768;48.562;13.414;2023-02-12T01:29:50;99158.88;;;5.21;61.17
35649;BME280;21768;48.562;13.414;2023-02-12T01:32:15;99156.41;;;5.13;61.34
35649;BME280;21768;48.562;13.414;2023-02-12T01:34:41;99159.81;;;5.07;61.73
35649;BME280;21768;48.562;13.414;2023-02-12T01:37:06;99159.66;;;5.05;61.48
35649;BME280;21768;48.562;13.414;2023-02-12T01:39:31;99165.72;;;5.07;61.66
35649;BME280;21768;48.562;13.414;2023-02-12T01:41:57;99165.00;;;5.08;61.66
35649;BME280;21768;48.562;13.414;2023-02-12T01:44:27;99176.06;;;5.10;61.81
35649;BME280;21768;48.562;13.414;2023-02-12T01:46:56;99166.44;;;5.13;61.83
35649;BME280;21768;48.562;13.414;2023-02-12T01:51:57;99164.28;;;5.09;62.13
35649;BME280;21768;48.562;13.414;2023-02-12T01:54:23;99168.56;;;5.10;62.11
35649;BME280;21768;48.562;13.414;2023-02-12T01:56:50;99170.72;;;5.07;62.33
35649;BME280;21768;48.562;13.414;2023-02-12T01:59:17;99160.91;;;5.02;62.38
35649;BME280;21768;48.562;13.414;2023-02-12T02:01:44;99168.78;;;4.98;62.63
35649;BME280;21768;48.562;13.414;2023-02-12T02:04:16;99164.34;;;4.88;62.89
35649;BME280;21768;48.562;13.414;2023-02-12T02:06:47;99174.69;;;4.84;63.19
35649;BME280;21768;48.562;13.414;2023-02-12T02:09:16;99162.91;;;4.83;63.49
35649;BME280;21768;48.562;13.414;2023-02-12T02:11:42;99160.41;;;4.83;63.47
35649;BME280;21768;48.562;13.414;2023-02-12T02:14:26;99155.06;;;4.87;63.38
35649;BME280;21768;48.562;13.414;2023-02-12T02:39:15;99166.50;;;4.85;64.24
35649;BME280;21768;48.562;13.414;2023-02-12T02:44:12;99159.69;;;4.77;64.44
35649;BME280;21768;48.562;13.414;2023-02-12T02:46:45;99156.31;;;4.76;64.59
35649;BME280;21768;48.562;13.414;2023-02-12T02:49:17;99154.88;;;4.78;64.73
35649;BME280;21768;48.562;13.414;2023-02-12T02:51:47;99158.63;;;4.75;64.95
35649;BME280;21768;48.562;13.414;2023-02-12T02:56:54;99168.81;;;4.84;64.88
35649;BME280;21768;48.562;13.414;2023-02-12T02:59:26;99157.91;;;4.83;64.71
35649;BME280;21768;48.562;13.414;2023-02-12T03:01:58;99154.34;;;4.81;64.72
35649;BME280;21768;48.562;13.414;2023-02-12T03:04:44;99158.44;;;4.81;65.10
35649;BME280;21768;48.562;13.414;2023-02-12T03:07:15;99157.91;;;4.83;64.99
35649;BME280;21768;48.562;13.414;2023-02-12T03:17:48;99149.34;;;4.81;65.09
35649;BME280;21768;48.562;13.414;2023-02-12T03:20:36;99155.59;;;4.85;65.12
35649;BME280;21768;48.562;13.414;2023-02-12T03:23:11;99167.19;;;4.84;65.16
35649;BME280;21768;48.562;13.414;2023-02-12T03:26:31;99168.28;;;4.86;65.02
35649;BME280;21768;48.562;13.414;2023-02-12T03:28:35;99177.19;;;4.91;64.89
35649;BME280;21768;48.562;13.414;2023-02-12T03:31:26;99175.19;;;4.96;64.70
35649;BME280;21768;48.562;13.414;2023-02-12T03:39:27;99184.88;;;4.78;64.94
35649;BME280;21768;48.562;13.414;2023-02-12T03:42:12;99180.78;;;4.79;65.06
35649;BME280;21768;48.562;13.414;2023-02-12T03:47:21;99196.13;;;4.82;65.25
35649;BME280;21768;48.562;13.414;2023-02-12T03:49:58;99205.78;;;4.79;65.32
35649;BME280;21768;48.562;13.414;2023-02-12T03:52:27;99202.22;;;4.77;65.28
35649;BME280;21768;48.562;13.414;2023-02-12T03:54:53;99206.31;;;4.76;65.41
35649;BME280;21768;48.562;13.414;2023-02-12T03:57:26;99210.59;;;4.70;65.64
35649;BME280;21768;48.562;13.414;2023-02-12T03:59:57;99211.31;;;4.76;65.51
35649;BME280;21768;48.562;13.414;2023-02-12T04:02:23;99210.25;;;4.82;65.46
35649;BME280;21768;48.562;13.414;2023-02-12T04:04:50;99220.06;;;4.87;65.42
35649;BME280;21768;48.562;13.414;2023-02-12T04:07:16;99214.72;;;4.91;65.34
35649;BME280;21768;48.562;13.414;2023-02-12T04:09:42;99223.09;;;4.92;65.35
35649;BME280;21768;48.562;13.414;2023-02-12T04:14:57;99225.59;;;4.85;65.33
35649;BME280;21768;48.562;13.414;2023-02-12T04:18:08;99231.84;;;4.81;65.54
35649;BME280;21768;48.562;13.414;2023-02-12T04:26:24;99234.19;;;4.87;65.53
35649;BME280;21768;48.562;13.414;2023-02-12T04:31:58;99222.75;;;4.89;65.38
35649;BME280;21768;48.562;13.414;2023-02-12T04:34:51;99234.72;;;4.84;65.58
35649;BME280;21768;48.562;13.414;2023-02-12T04:37:30;99232.56;;;4.80;65.81
35649;BME280;21768;48.562;13.414;2023-02-12T04:39:59;99240.44;;;4.83;65.72
35649;BME280;21768;48.562;13.414;2023-02-12T04:42:26;99235.44;;;4.83;65.75
35649;BME280;21768;48.562;13.414;2023-02-12T04:44:52;99222.38;;;4.86;65.86
35649;BME280;21768;48.562;13.414;2023-02-12T04:47:17;99221.13;;;4.82;65.84
35649;BME280;21768;48.562;13.414;2023-02-12T04:49:42;99221.13;;;4.82;66.00
35649;BME280;21768;48.562;13.414;2023-02-12T04:52:08;99224.72;;;4.84;66.35
35649;BME280;21768;48.562;13.414;2023-02-12T04:54:34;99222.22;;;4.84;66.52
35649;BME280;21768;48.562;13.414;2023-02-12T04:56:59;99220.78;;;4.86;66.48
35649;BME280;21768;48.562;13.414;2023-02-12T04:59:25;99219.00;;;4.85;66.68
35649;BME280;21768;48.562;13.414;2023-02-12T05:01:50;99221.69;;;4.87;66.60
35649;BME280;21768;48.562;13.414;2023-02-12T05:04:17;99226.31;;;4.84;66.83
35649;BME280;21768;48.562;13.414;2023-02-12T05:06:44;99223.81;;;4.84;67.22
35649;BME280;21768;48.562;13.414;2023-02-12T05:09:15;99231.50;;;4.85;67.39
35649;BME280;21768;48.562;13.414;2023-02-12T05:11:41;99237.22;;;4.91;67.16
35649;BME280;21768;48.562;13.414;2023-02-12T05:14:07;99233.28;;;4.93;67.26
35649;BME280;21768;48.562;13.414;2023-02-12T05:16:35;99237.72;;;4.96;67.29
35649;BME280;21768;48.562;13.414;2023-02-12T05:19:00;99231.47;;;4.99;67.19
35649;BME280;21768;48.562;13.414;2023-02-12T05:21:25;99243.97;;;5.06;67.12
35649;BME280;21768;48.562;13.414;2023-02-12T05:23:51;99237.91;;;5.11;66.98
35649;BME280;21768;48.562;13.414;2023-02-12T05:26:18;99247.38;;;5.14;66.67
35649;BME280;21768;48.562;13.414;2023-02-12T05:28:44;99245.94;;;5.16;66.96
35649;BME280;21768;48.562;13.414;2023-02-12T05:31:13;99251.50;;;5.13;67.01
35649;BME280;21768;48.562;13.414;2023-02-12T05:33:44;99244.69;;;5.05;66.70
35649;BME280;21768;48.562;13.414;2023-02-12T05:36:13;99254.53;;;5.04;67.12
35649;BME280;21768;48.562;13.414;2023-02-12T05:38:39;99254.69;;;5.05;66.90
35649;BME280;21768;48.562;13.414;2023-02-12T05:41:07;99254.69;;;5.05;66.89
35649;BME280;21768;48.562;13.414;2023-02-12T05:43:33;99254.00;;;5.06;67.19
35649;BME280;21768;48.562;13.414;2023-02-12T05:46:00;99255.78;;;5.07;67.23
35649;BME280;21768;48.562;13.414;2023-02-12T05:48:27;99266.69;;;5.08;67.03
35649;BME280;21768;48.562;13.414;2023-02-12T05:50:52;99266.31;;;5.05;67.15
35649;BME280;21768;48.562;13.414;2023-02-12T05:53:18;99274.91;;;5.07;67.11
35649;BME280;21768;48.562;13.414;2023-02-12T05:55:43;99264.00;;;5.06;67.18
35649;BME280;21768;48.562;13.414;2023-02-12T05:58:08;99277.75;;;5.03;67.53
35649;BME280;21768;48.562;13.414;2023-02-12T06:00:34;99281.50;;;5.06;67.58
35649;BME280;21768;48.562;13.414;2023-02-12T06:02:59;99282.56;;;5.08;67.40
35649;BME280;21768;48.562;13.414;2023-02-12T06:05:25;99273.09;;;5.06;67.60
35649;BME280;21768;48.562;13.414;2023-02-12T06:07:50;99280.78;;;5.07;68.07
35649;BME280;21768;48.562;13.414;2023-02-12T06:10:16;99283.47;;;5.09;67.94
35649;BME280;21768;48.562;13.414;2023-02-12T06:12:41;99279.34;;;5.09;67.92
35649;BME280;21768;48.562;13.414;2023-02-12T06:15:07;99285.44;;;5.11;67.63
35649;BME280;21768;48.562;13.414;2023-02-12T06:17:33;99289.00;;;5.06;67.81
35649;BME280;21768;48.562;13.414;2023-02-12T06:19:58;99298.47;;;5.09;68.13
35649;BME280;21768;48.562;13.414;2023-02-12T06:22:24;99300.09;;;5.08;68.16
35649;BME280;21768;48.562;13.414;2023-02-12T06:24:49;99291.16;;;5.10;68.18
35649;BME280;21768;48.562;13.414;2023-02-12T06:27:15;99292.22;;;5.12;68.39
35649;BME280;21768;48.562;13.414;2023-02-12T06:29:40;99285.25;;;5.10;68.25
35649;BME280;21768;48.562;13.414;2023-02-12T06:32:05;99299.72;;;5.12;68.29
35649;BME280;21768;48.562;13.414;2023-02-12T06:34:32;99303.31;;;5.15;68.01
35649;BME280;21768;48.562;13.414;2023-02-12T06:36:58;99298.66;;;5.10;68.48
35649;BME280;21768;48.562;13.414;2023-02-12T06:39:23;99301.34;;;5.12;68.50
35649;BME280;21768;48.562;13.414;2023-02-12T06:41:49;99305.44;;;5.11;68.72
35649;BME280;21768;48.562;13.414;2023-02-12T06:44:14;99318.84;;;5.12;68.77
35649;BME280;21768;48.562;13.414;2023-02-12T06:46:40;99322.97;;;5.11;68.94
35649;BME280;21768;48.562;13.414;2023-02-12T06:49:05;99321.91;;;5.17;69.10
35649;BME280;21768;48.562;13.414;2023-02-12T06:51:31;99315.81;;;5.15;69.36
35649;BME280;21768;48.562;13.414;2023-02-12T06:53:57;99310.81;;;5.15;69.47
35649;BME280;21768;48.562;13.414;2023-02-12T06:56:24;99316.91;;;5.17;69.73
35649;BME280;21768;48.562;13.414;2023-02-12T06:58:55;99311.84;;;5.24;69.57
35649;BME280;21768;48.562;13.414;2023-02-12T07:01:24;99313.28;;;5.29;69.42
35649;BME280;21768;48.562;13.414;2023-02-12T07:03:57;99321.50;;;5.28;69.71
35649;BME280;21768;48.562;13.414;2023-02-12T07:06:24;99327.22;;;5.34;69.40
35649;BME280;21768;48.562;13.414;2023-02-12T07:08:50;99323.84;;;5.33;69.39
35649;BME280;21768;48.562;13.414;2023-02-12T07:11:16;99331.16;;;5.32;69.34
35649;BME280;21768;48.562;13.414;2023-02-12T07:13:42;99332.25;;;5.27;69.04
35649;BME280;21768;48.562;13.414;2023-02-12T07:16:14;99335.81;;;5.22;69.27
35649;BME280;21768;48.562;13.414;2023-02-12T07:18:40;99331.50;;;5.21;69.03
35649;BME280;21768;48.562;13.414;2023-02-12T07:21:06;99339.75;;;5.27;68.90
35649;BME280;21768;48.562;13.414;2023-02-12T07:23:32;99337.41;;;5.28;68.54
35649;BME280;21768;48.562;13.414;2023-02-12T07:26:04;99334.75;;;5.27;68.59
35649;BME280;21768;48.562;13.414;2023-02-12T07:28:30;99339.22;;;5.29;68.69
35649;BME280;21768;48.562;13.414;2023-02-12T07:33:35;99336.88;;;5.31;69.12
35649;BME280;21768;48.562;13.414;2023-02-12T07:36:03;99334.38;;;5.31;69.13
35649;BME280;21768;48.562;13.414;2023-02-12T07:38:29;99336.53;;;5.35;68.98
35649;BME280;21768;48.562;13.414;2023-02-12T07:40:54;99336.53;;;5.42;68.89
35649;BME280;21768;48.562;13.414;2023-02-12T07:43:23;99340.44;;;5.47;68.82
35649;BME280;21768;48.562;13.414;2023-02-12T07:45:48;99332.75;;;5.45;68.77
35649;BME280;21768;48.562;13.414;2023-02-12T07:48:14;99339.22;;;5.43;68.88
35649;BME280;21768;48.562;13.414;2023-02-12T07:50:39;99336.53;;;5.42;69.07
35649;BME280;21768;48.562;13.414;2023-02-12T07:53:04;99349.75;;;5.41;69.03
35649;BME280;21768;48.562;13.414;2023-02-12T07:55:30;99335.28;;;5.38;69.26
35649;BME280;21768;48.562;13.414;2023-02-12T07:57:55;99342.63;;;5.44;69.45
35649;BME280;21768;48.562;13.414;2023-02-12T08:00:21;99340.44;;;5.54;69.17
35649;BME280;21768;48.562;13.414;2023-02-12T08:02:52;99345.44;;;5.54;69.42
35649;BME280;21768;48.562;13.414;2023-02-12T08:05:18;99335.78;;;5.50;69.37
35649;BME280;21768;48.562;13.414;2023-02-12T08:07:44;99345.81;;;5.50;69.21
35649;BME280;21768;48.562;13.414;2023-02-12T08:10:10;99340.44;;;5.54;69.06
35649;BME280;21768;48.562;13.414;2023-02-12T08:12:35;99341.50;;;5.56;69.05
35649;BME280;21768;48.562;13.414;2023-02-12T08:15:00;99343.28;;;5.57;68.89
35649;BME280;21768;48.562;13.414;2023-02-12T08:17:26;99338.28;;;5.57;68.88
35649;BME280;21768;48.562;13.414;2023-02-12T08:19:51;99343.06;;;5.70;68.68
35649;BME280;21768;48.562;13.414;2023-02-12T08:22:17;99337.88;;;5.82;68.66
35649;BME280;21768;48.562;13.414;2023-02-12T08:24:43;99345.03;;;5.87;68.17
35649;BME280;21768;48.562;13.414;2023-02-12T08:27:08;99347.88;;;5.82;68.50
35649;BME280;21768;48.562;13.414;2023-02-12T08:29:34;99335.72;;;5.78;68.59
35649;BME280;21768;48.562;13.414;2023-02-12T08:32:01;99336.97;;;5.82;68.55
35649;BME280;21768;48.562;13.414;2023-02-12T08:34:32;99339.84;;;5.78;68.94
35649;BME280;21768;48.562;13.414;2023-02-12T08:36:58;99337.88;;;5.75;68.89
35649;BME280;21768;48.562;13.414;2023-02-12T08:39:25;99340.38;;;5.82;69.17
35649;BME280;21768;48.562;13.414;2023-02-12T08:41:53;99345.03;;;5.79;68.82
35649;BME280;21768;48.562;13.414;2023-02-12T08:44:19;99345.75;;;5.78;68.96
35649;BME280;21768;48.562;13.414;2023-02-12T08:46:47;99349.88;;;5.78;68.97
35649;BME280;21768;48.562;13.414;2023-02-12T08:49:19;99342.16;;;5.84;68.99
35649;BME280;21768;48.562;13.414;2023-02-12T08:51:47;99342.53;;;5.79;69.28
35649;BME280;21768;48.562;13.414;2023-02-12T08:54:16;99346.09;;;5.74;69.29
35649;BME280;21768;48.562;13.414;2023-02-12T08:56:43;99349.88;;;5.78;69.14
35649;BME280;21768;48.562;13.414;2023-02-12T08:59:13;99358.09;;;5.77;69.19
35649;BME280;21768;48.562;13.414;2023-02-12T09:01:39;99348.97;;;5.77;69.73
35649;BME280;21768;48.562;13.414;2023-02-12T09:04:19;99352.91;;;5.82;69.29
35649;BME280;21768;48.562;13.414;2023-02-12T09:06:46;99348.97;;;5.92;69.07
35649;BME280;21768;48.562;13.414;2023-02-12T09:09:13;99352.34;;;5.85;69.39
35649;BME280;21768;48.562;13.414;2023-02-12T09:11:39;99350.75;;;5.78;69.60
35649;BME280;21768;48.562;13.414;2023-02-12T09:14:07;99364.00;;;5.77;69.80
35649;BME280;21768;48.562;13.414;2023-02-12T09:16:35;99361.84;;;5.80;69.94
35649;BME280;21768;48.562;13.414;2023-02-12T09:19:01;99365.25;;;5.81;69.84
35649;BME280;21768;48.562;13.414;2023-02-12T09:21:27;99360.78;;;5.78;70.11
35649;BME280;21768;48.562;13.414;2023-02-12T09:23:53;99361.47;;;5.85;70.05
35649;BME280;21768;48.562;13.414;2023-02-12T09:26:21;99368.28;;;5.86;70.32
35649;BME280;21768;48.562;13.414;2023-02-12T09:28:48;99368.28;;;5.86;70.50
35649;BME280;21768;48.562;13.414;2023-02-12T09:31:26;99370.97;;;5.87;70.73
35649;BME280;21768;48.562;13.414;2023-02-12T09:33:54;99379.00;;;5.99;70.73
35649;BME280;21768;48.562;13.414;2023-02-12T09:36:20;99378.28;;;6.00;70.59
35649;BME280;21768;48.562;13.414;2023-02-12T09:38:46;99389.72;;;6.05;70.75
35649;BME280;21768;48.562;13.414;2023-02-12T09:44:01;99384.38;;;6.02;71.01
35649;BME280;21768;48.562;13.414;2023-02-12T09:46:34;99387.75;;;6.02;71.21
35649;BME280;21768;48.562;13.414;2023-02-12T09:49:10;99391.69;;;6.07;70.96
35649;BME280;21768;48.562;13.414;2023-02-12T09:51:41;99385.22;;;6.17;70.89
35649;BME280;21768;48.562;13.414;2023-02-12T09:54:14;99392.03;;;6.18;71.06
35649;BME280;21768;48.562;13.414;2023-02-12T09:56:44;99392.75;;;6.17;71.00
35649;BME280;21768;48.562;13.414;2023-02-12T09:59:19;99394.38;;;6.16;71.29
35649;BME280;21768;48.562;13.414;2023-02-12T10:01:50;99401.34;;;6.19;71.36
35649;BME280;21768;48.562;13.414;2023-02-12T10:04:15;99400.44;;;6.18;71.52
35649;BME280;21768;48.562;13.414;2023-02-12T10:06:47;99394.53;;;6.18;71.55
35649;BME280;21768;48.562;13.414;2023-02-12T10:12:11;99396.66;;;6.22;71.60
35649;BME280;21768;48.562;13.414;2023-02-12T10:20:24;99397.16;;;6.33;71.17
35649;BME280;21768;48.562;13.414;2023-02-12T10:25:53;99405.03;;;6.36;71.32
35649;BME280;21768;48.562;13.414;2023-02-12T10:31:01;99397.34;;;6.35;71.58
35649;BME280;21768;48.562;13.414;2023-02-12T10:33:48;99397.31;;;6.42;71.55
35649;BME280;21768;48.562;13.414;2023-02-12T10:36:41;99399.03;;;6.57;71.36
35649;BME280;21768;48.562;13.414;2023-02-12T10:41:42;99390.53;;;6.71;71.12
35649;BME280;21768;48.562;13.414;2023-02-12T10:44:12;99390.88;;;6.74;71.34
35649;BME280;21768;48.562;13.414;2023-02-12T10:46:37;99389.25;;;6.74;71.44
35649;BME280;21768;48.562;13.414;2023-02-12T10:49:04;99389.38;;;6.83;71.32
35649;BME280;21768;48.562;13.414;2023-02-12T10:57:06;99395.53;;;7.01;70.79
35649;BME280;21768;48.562;13.414;2023-02-12T10:59:32;99387.47;;;7.03;70.52
35649;BME280;21768;48.562;13.414;2023-02-12T11:01:58;99393.88;;;7.08;70.44
35649;BME280;21768;48.562;13.414;2023-02-12T11:07:04;99387.47;;;7.03;70.50
35649;BME280;21768;48.562;13.414;2023-02-12T11:09:34;99387.47;;;7.03;70.35
35649;BME280;21768;48.562;13.414;2023-02-12T11:12:01;99386.41;;;7.01;70.34
35649;BME280;21768;48.562;13.414;2023-02-12T11:14:27;99383.72;;;7.00;70.32
35649;BME280;21768;48.562;13.414;2023-02-12T11:16:58;99391.38;;;7.08;70.10
35649;BME280;21768;48.562;13.414;2023-02-12T11:19:30;99381.69;;;7.11;69.93
35649;BME280;21768;48.562;13.414;2023-02-12T11:24:32;99380.00;;;7.19;69.73
35649;BME280;21768;48.562;13.414;2023-02-12T11:29:43;99370.97;;;7.28;69.61
35649;BME280;21768;48.562;13.414;2023-02-12T11:32:17;99374.31;;;7.36;69.46
35649;BME280;21768;48.562;13.414;2023-02-12T11:34:42;99373.69;;;7.45;69.57
35649;BME280;21768;48.562;13.414;2023-02-12T11:37:17;99375.03;;;7.58;69.29
35649;BME280;21768;48.562;13.414;2023-02-12T11:39:47;99372.44;;;7.65;68.99
35649;BME280;21768;48.562;13.414;2023-02-12T11:42:19;99372.19;;;7.70;68.69
35649;BME280;21768;48.562;13.414;2023-02-12T11:44:55;99371.97;;;7.76;68.74
35649;BME280;21768;48.562;13.414;2023-02-12T11:47:27;99359.91;;;7.80;68.52
35649;BME280;21768;48.562;13.414;2023-02-12T11:50:35;99365.91;;;7.90;68.28
35649;BME280;21768;48.562;13.414;2023-02-12T11:53:03;99368.09;;;8.02;68.13
35649;BME280;21768;48.562;13.414;2023-02-12T11:55:34;99358.22;;;8.04;67.70
35649;BME280;21768;48.562;13.414;2023-02-12T11:58:06;99350.66;;;8.04;67.28
35649;BME280;21768;48.562;13.414;2023-02-12T12:00:44;99355.78;;;8.12;67.26
35649;BME280;21768;48.562;13.414;2023-02-12T12:03:14;99348.63;;;8.24;66.99
35649;BME280;21768;48.562;13.414;2023-02-12T12:05:49;99352.88;;;8.32;66.49
35649;BME280;21768;48.562;13.414;2023-02-12T12:08:23;99342.13;;;8.58;66.28
35649;BME280;21768;48.562;13.414;2023-02-12T12:10:56;99346.72;;;9.43;64.94
35649;BME280;21768;48.562;13.414;2023-02-12T12:13:38;99347.31;;;10.00;62.89
35649;BME280;21768;48.562;13.414;2023-02-12T12:16:17;99342.91;;;11.19;59.98
35649;BME280;21768;48.562;13.414;2023-02-12T12:19:08;99338.66;;;11.73;58.02
35649;BME280;21768;48.562;13.414;2023-02-12T12:27:41;99323.38;;;11.63;57.75
35649;BME280;21768;48.562;13.414;2023-02-12T12:33:36;99327.91;;;11.21;57.31
35649;BME280;21768;48.562;13.414;2023-02-12T12:39:34;99314.66;;;10.79;58.55
35649;BME280;21768;48.562;13.414;2023-02-12T12:44:45;99320.28;;;11.38;56.63
35649;BME280;21768;48.562;13.414;2023-02-12T12:53:10;99304.59;;;11.97;55.86
35649;BME280;21768;48.562;13.414;2023-02-12T12:55:58;99300.34;;;12.44;54.53
35649;BME280;21768;48.562;13.414;2023-02-12T13:04:27;99301.25;;;13.12;51.79
35649;BME280;21768;48.562;13.414;2023-02-12T13:07:19;99303.03;;;12.45;53.55
35649;BME280;21768;48.562;13.414;2023-02-12T13:10:19;99303.16;;;11.90;54.69
35649;BME280;21768;48.562;13.414;2023-02-12T13:23:52;99303.00;;;10.98;55.46
35649;BME280;21768;48.562;13.414;2023-02-12T13:26:37;99302.50;;;10.75;55.89
35649;BME280;21768;48.562;13.414;2023-02-12T13:29:08;99309.91;;;10.82;56.33
35649;BME280;21768;48.562;13.414;2023-02-12T13:31:44;99312.53;;;10.92;55.96
35649;BME280;21768;48.562;13.414;2023-02-12T13:34:13;99313.56;;;10.94;55.55
35649;BME280;21768;48.562;13.414;2023-02-12T13:36:40;99309.72;;;10.89;55.50
35649;BME280;21768;48.562;13.414;2023-02-12T13:39:31;99311.16;;;10.51;56.22
35649;BME280;21768;48.562;13.414;2023-02-12T13:53:26;99316.03;;;9.39;58.56
35649;BME280;21768;48.562;13.414;2023-02-12T13:56:03;99316.59;;;9.28;59.03
35649;BME280;21768;48.562;13.414;2023-02-12T14:03:25;99310.00;;;9.12;59.71
35649;BME280;21768;48.562;13.414;2023-02-12T14:08:38;99315.06;;;9.12;59.91
35649;BME280;21768;48.562;13.414;2023-02-12T14:11:10;99313.78;;;9.33;59.75
35649;BME280;21768;48.562;13.414;2023-02-12T14:21:56;99302.56;;;9.05;60.15
35649;BME280;21768;48.562;13.414;2023-02-12T14:27:04;99304.34;;;9.06;60.70
35649;BME280;21768;48.562;13.414;2023-02-12T14:29:31;99305.41;;;9.17;60.27
35649;BME280;21768;48.562;13.414;2023-02-12T14:31:56;99302.31;;;9.19;60.27
35649;BME280;21768;48.562;13.414;2023-02-12T14:36:49;99303.78;;;9.17;60.30
35649;BME280;21768;48.562;13.414;2023-02-12T14:39:33;99299.66;;;9.18;60.40
35649;BME280;21768;48.562;13.414;2023-02-12T14:44:59;99299.00;;;9.03;60.57
35649;BME280;21768;48.562;13.414;2023-02-12T14:49:53;99306.50;;;8.95;61.09
35649;BME280;21768;48.562;13.414;2023-02-12T14:52:24;99298.63;;;8.83;61.31
35649;BME280;21768;48.562;13.414;2023-02-12T14:54:56;99304.22;;;8.80;61.51
35649;BME280;21768;48.562;13.414;2023-02-12T15:00:00;99305.31;;;8.67;61.71
35649;BME280;21768;48.562;13.414;2023-02-12T15:02:31;99299.34;;;8.58;61.97
35649;BME280;21768;48.562;13.414;2023-02-12T15:05:02;99295.16;;;8.49;62.13
35649;BME280;21768;48.562;13.414;2023-02-12T15:07:34;99297.75;;;8.42;62.40
35649;BME280;21768;48.562;13.414;2023-02-12T15:10:22;99297.16;;;8.36;62.41
35649;BME280;21768;48.562;13.414;2023-02-12T15:15:34;99301.50;;;8.30;62.57
35649;BME280;21768;48.562;13.414;2023-02-12T15:26:04;99310.22;;;8.09;63.09
35649;BME280;21768;48.562;13.414;2023-02-12T15:28:33;99311.91;;;8.02;63.44
35649;BME280;21768;48.562;13.414;2023-02-12T15:31:02;99313.75;;;7.96;63.60
35649;BME280;21768;48.562;13.414;2023-02-12T15:33:31;99313.31;;;7.91;63.86
35649;BME280;21768;48.562;13.414;2023-02-12T15:35:58;99318.91;;;7.89;64.07
35649;BME280;21768;48.562;13.414;2023-02-12T15:38:37;99309.66;;;7.80;64.02
35649;BME280;21768;48.562;13.414;2023-02-12T15:41:06;99307.53;;;7.76;64.42
35649;BME280;21768;48.562;13.414;2023-02-12T15:43:39;99307.19;;;7.73;64.48
35649;BME280;21768;48.562;13.414;2023-02-12T15:46:06;99305.75;;;7.75;64.48
35649;BME280;21768;48.562;13.414;2023-02-12T15:48:39;99312.06;;;7.72;64.49
35649;BME280;21768;48.562;13.414;2023-02-12T15:51:15;99308.03;;;7.65;64.87
35649;BME280;21768;48.562;13.414;2023-02-12T15:53:43;99318.53;;;7.54;65.04
35649;BME280;21768;48.562;13.414;2023-02-12T15:56:14;99311.44;;;7.43;65.56
35649;BME280;21768;48.562;13.414;2023-02-12T16:01:19;99308.31;;;7.37;65.77
35649;BME280;21768;48.562;13.414;2023-02-12T16:03:49;99315.16;;;7.31;65.83
35649;BME280;21768;48.562;13.414;2023-02-12T16:06:16;99316.22;;;7.33;65.93
35649;BME280;21768;48.562;13.414;2023-02-12T16:08:46;99311.03;;;7.31;65.88
35649;BME280;21768;48.562;13.414;2023-02-12T16:11:16;99309.75;;;7.35;65.86
35649;BME280;21768;48.562;13.414;2023-02-12T16:13:55;99304.50;;;7.40;65.75
35649;BME280;21768;48.562;13.414;2023-02-12T16:19:21;99314.44;;;7.32;65.79
35649;BME280;21768;48.562;13.414;2023-02-12T16:21:52;99311.44;;;7.27;66.14